createdAt,value
2022-11-10T00:02:18.779Z,4.90
2022-11-10T00:05:08.196Z,4.70
2022-11-10T00:07:55.036Z,5.10
2022-11-10T00:11:01.486Z,5.13
2022-11-10T00:14:07.473Z,4.28
2022-11-10T00:17:06.511Z,4.78
2022-11-10T00:22:41.281Z,4.43
2022-11-10T00:25:28.255Z,4.80
2022-11-10T00:28:15.040Z,4.30
2022-11-10T00:31:06.040Z,4.55
2022-11-10T00:33:52.815Z,4.53
2022-11-10T00:36:42.481Z,4.80
2022-11-10T00:39:29.292Z,4.47
2022-11-10T00:42:19.281Z,4.60
2022-11-10T00:45:06.645Z,4.80
2022-11-10T00:47:53.434Z,4.25
2022-11-10T00:50:40.205Z,3.97
2022-11-10T00:53:27.037Z,3.58
2022-11-10T00:56:13.951Z,4.10
2022-11-10T00:59:00.840Z,4.22
2022-11-10T01:01:47.604Z,3.90
2022-11-10T01:04:34.593Z,3.58
2022-11-10T01:07:23.881Z,3.80
2022-11-10T01:10:10.680Z,3.90
2022-11-10T01:12:57.611Z,3.83
2022-11-10T01:15:44.455Z,3.58
2022-11-10T01:18:31.306Z,3.90
2022-11-10T01:21:18.550Z,3.20
2022-11-10T01:24:05.462Z,3.55
2022-11-10T01:26:52.847Z,3.60
2022-11-10T01:29:41.883Z,3.88
2022-11-10T01:32:28.691Z,3.72
2022-11-10T01:35:18.518Z,3.45
2022-11-10T01:38:07.808Z,3.78
2022-11-10T01:40:57.626Z,3.80
2022-11-10T01:43:44.400Z,3.83
2022-11-10T01:46:31.241Z,3.88
2022-11-10T01:49:22.978Z,3.83
2022-11-10T01:52:14.557Z,3.70
2022-11-10T01:55:04.199Z,3.38
2022-11-10T01:57:51.633Z,3.55
2022-11-10T02:00:38.649Z,4.03
2022-11-10T02:03:51.482Z,3.78
2022-11-10T02:06:41.468Z,3.88
2022-11-10T02:09:30.639Z,3.60
2022-11-10T02:15:24.071Z,3.33
2022-11-10T02:18:11.032Z,3.70
2022-11-10T02:20:58.064Z,3.40
2022-11-10T02:23:47.687Z,3.50
2022-11-10T02:26:38.338Z,3.60
2022-11-10T02:29:26.001Z,4.00
2022-11-10T02:32:14.716Z,4.15
2022-11-10T02:35:01.562Z,3.75
2022-11-10T02:37:48.506Z,3.53
2022-11-10T02:40:41.093Z,3.92
2022-11-10T02:43:28.344Z,3.60
2022-11-10T02:46:15.158Z,3.80
2022-11-10T02:49:01.940Z,3.63
2022-11-10T02:51:48.706Z,3.80
2022-11-10T02:54:35.496Z,3.95
2022-11-10T02:57:22.240Z,3.80
2022-11-10T03:00:09.624Z,4.07
2022-11-10T03:03:02.019Z,3.97
2022-11-10T03:05:48.815Z,4.72
2022-11-10T03:08:37.029Z,3.92
2022-11-10T03:11:28.021Z,3.90
2022-11-10T03:14:17.968Z,3.83
2022-11-10T03:17:04.864Z,3.67
2022-11-10T03:19:51.704Z,4.45
2022-11-10T03:22:41.276Z,4.13
2022-11-10T03:25:28.054Z,4.10
2022-11-10T03:28:14.796Z,3.85
2022-11-10T03:31:01.766Z,3.58
2022-11-10T03:33:48.660Z,4.13
2022-11-10T03:36:38.395Z,3.58
2022-11-10T03:39:25.276Z,3.60
2022-11-10T03:42:14.317Z,4.07
2022-11-10T03:45:02.719Z,3.55
2022-11-10T03:47:50.313Z,3.72
2022-11-10T03:50:39.334Z,3.70
2022-11-10T03:53:26.115Z,4.15
2022-11-10T03:56:13.179Z,4.45
2022-11-10T03:59:02.225Z,4.13
2022-11-10T04:01:49.075Z,4.07
2022-11-10T04:04:54.196Z,4.30
2022-11-10T04:08:02.338Z,3.97
2022-11-10T04:10:56.083Z,4.33
2022-11-10T04:14:01.715Z,3.92
2022-11-10T04:16:52.103Z,4.07
2022-11-10T04:19:41.852Z,4.25
2022-11-10T04:22:49.890Z,4.35
2022-11-10T04:25:56.698Z,3.92
2022-11-10T04:28:44.716Z,4.13
2022-11-10T04:31:33.190Z,4.20
2022-11-10T04:34:20.013Z,4.10
2022-11-10T04:37:06.955Z,4.22
2022-11-10T04:39:53.838Z,4.43
2022-11-10T04:42:45.845Z,4.35
2022-11-10T04:45:35.604Z,4.50
2022-11-10T04:48:24.580Z,4.18
2022-11-10T04:51:11.754Z,4.05
2022-11-10T04:53:58.956Z,4.22
2022-11-10T04:56:45.693Z,4.07
2022-11-10T04:59:32.476Z,4.20
2022-11-10T05:02:19.242Z,4.70
2022-11-10T05:05:06.401Z,4.50
2022-11-10T05:07:53.202Z,4.47
2022-11-10T05:10:39.979Z,4.28
2022-11-10T05:13:26.838Z,4.53
2022-11-10T05:16:13.692Z,4.60
2022-11-10T05:19:00.502Z,4.53
2022-11-10T05:21:47.334Z,4.63
2022-11-10T05:24:34.162Z,4.97
2022-11-10T05:27:20.990Z,4.90
2022-11-10T05:30:18.148Z,4.63
2022-11-10T05:33:05.834Z,4.40
2022-11-10T05:35:52.633Z,4.13
2022-11-10T05:38:43.894Z,4.05
2022-11-10T05:41:30.859Z,4.18
2022-11-10T05:44:17.641Z,4.40
2022-11-10T05:47:04.546Z,4.65
2022-11-10T05:49:51.360Z,3.85
2022-11-10T05:52:50.156Z,4.22
2022-11-10T05:58:24.030Z,4.03
2022-11-10T06:01:10.852Z,4.00
2022-11-10T06:03:57.701Z,4.22
2022-11-10T06:06:44.542Z,3.92
2022-11-10T06:09:46.675Z,4.22
2022-11-10T06:12:36.372Z,3.83
2022-11-10T06:15:28.741Z,3.70
2022-11-10T06:18:15.483Z,3.65
2022-11-10T06:21:02.282Z,3.47
2022-11-10T06:23:49.058Z,3.65
2022-11-10T06:26:35.832Z,3.92
2022-11-10T06:29:26.550Z,3.50
2022-11-10T06:32:17.520Z,3.40
2022-11-10T06:35:08.117Z,3.47
2022-11-10T06:38:02.189Z,2.85
2022-11-10T06:40:48.952Z,2.95
2022-11-10T06:43:35.754Z,3.33
2022-11-10T06:46:22.564Z,3.60
2022-11-10T06:49:09.311Z,4.10
2022-11-10T06:51:56.123Z,3.20
2022-11-10T06:54:43.057Z,3.67
2022-11-10T06:57:31.800Z,3.47
2022-11-10T07:00:18.870Z,3.50
2022-11-10T07:03:07.940Z,3.33
2022-11-10T07:05:54.711Z,3.63
2022-11-10T07:08:41.525Z,3.40
2022-11-10T07:11:28.269Z,3.40
2022-11-10T07:14:15.084Z,3.40
2022-11-10T07:17:01.897Z,3.33
2022-11-10T07:19:48.721Z,3.30
2022-11-10T07:22:43.367Z,3.17
2022-11-10T07:25:38.217Z,3.30
2022-11-10T07:28:30.918Z,3.38
2022-11-10T07:31:20.580Z,2.85
2022-11-10T07:34:14.134Z,2.90
2022-11-10T07:37:04.191Z,2.90
2022-11-10T07:39:59.830Z,2.88
2022-11-10T07:43:08.260Z,2.70
2022-11-10T07:45:57.839Z,3.15
2022-11-10T07:49:04.192Z,2.88
2022-11-10T08:01:28.171Z,2.47
2022-11-10T08:04:18.301Z,2.50
2022-11-10T08:07:11.849Z,2.10
2022-11-10T08:10:59.701Z,2.95
2022-11-10T08:13:27.763Z,2.95
2022-11-10T08:16:47.307Z,3.28
2022-11-10T08:19:34.194Z,2.90
2022-11-10T08:22:23.691Z,3.00
2022-11-10T08:25:14.704Z,3.10
2022-11-10T08:28:20.101Z,2.55
2022-11-10T08:31:09.884Z,2.35
2022-11-10T08:33:56.652Z,2.38
2022-11-10T08:36:44.335Z,2.72
2022-11-10T08:39:38.920Z,2.30
2022-11-10T08:42:26.429Z,2.25
2022-11-10T08:45:13.823Z,2.25
2022-11-10T08:48:02.330Z,2.97
2022-11-10T08:50:49.909Z,3.10
2022-11-10T08:53:36.704Z,2.60
2022-11-10T08:56:26.871Z,3.17
2022-11-10T08:59:13.685Z,2.40
2022-11-10T09:02:02.532Z,2.60
2022-11-10T09:04:53.442Z,2.40
2022-11-10T09:07:49.174Z,2.70
2022-11-10T09:10:41.481Z,2.63
2022-11-10T09:13:33.577Z,2.60
2022-11-10T09:16:20.618Z,2.60
2022-11-10T09:19:14.210Z,2.90
2022-11-10T09:22:25.021Z,2.63
2022-11-10T09:26:29.804Z,3.00
2022-11-10T09:29:39.076Z,2.40
2022-11-10T09:32:36.397Z,2.67
2022-11-10T09:39:01.641Z,2.38
2022-11-10T09:46:01.973Z,2.30
2022-11-10T09:56:13.351Z,2.30
2022-11-10T09:59:55.002Z,2.22
2022-11-10T10:07:49.921Z,2.45
2022-11-10T10:11:13.868Z,2.30
2022-11-10T10:14:46.819Z,2.33
2022-11-10T10:17:57.433Z,2.40
2022-11-10T10:38:30.571Z,2.20
2022-11-10T10:41:36.083Z,1.98
2022-11-10T10:44:28.956Z,2.05
2022-11-10T11:07:38.899Z,2.10
2022-11-10T11:11:18.692Z,2.00
2022-11-10T11:15:01.489Z,1.90
2022-11-10T11:18:27.021Z,2.08
2022-11-10T11:25:31.591Z,2.20
2022-11-10T11:31:49.080Z,2.42
2022-11-10T11:41:44.003Z,2.58
2022-11-10T11:44:47.771Z,2.70
2022-11-10T11:48:07.300Z,2.33
2022-11-10T11:51:44.998Z,2.60
2022-11-10T11:58:28.033Z,2.78
2022-11-10T12:01:33.467Z,2.35
2022-11-10T12:08:20.315Z,2.30
2022-11-10T12:11:54.629Z,2.30
2022-11-10T12:15:26.711Z,2.15
2022-11-10T12:34:15.389Z,1.92
2022-11-10T12:37:44.172Z,2.10
2022-11-10T12:45:00.946Z,1.98
2022-11-10T12:47:56.289Z,2.00
2022-11-10T12:51:33.506Z,1.88
2022-11-10T13:05:14.814Z,1.70
2022-11-10T13:08:44.256Z,1.85
2022-11-10T13:11:41.417Z,1.65
2022-11-10T13:14:47.069Z,1.70
2022-11-10T13:17:39.011Z,1.55
2022-11-10T13:24:14.853Z,1.50
2022-11-10T13:27:40.834Z,1.55
2022-11-10T13:34:40.834Z,1.75
2022-11-10T13:41:10.717Z,1.80
2022-11-10T13:44:10.994Z,1.50
2022-11-10T13:51:46.364Z,1.60
2022-11-10T13:54:54.135Z,1.83
2022-11-10T14:01:36.577Z,1.80
2022-11-10T14:04:55.970Z,1.45
2022-11-10T14:08:09.625Z,1.70
2022-11-10T14:11:49.664Z,1.80
2022-11-10T14:15:18.703Z,1.50
2022-11-10T14:22:24.381Z,1.70
2022-11-10T14:29:02.937Z,1.60
2022-11-10T14:32:06.012Z,1.52
2022-11-10T14:35:51.707Z,1.73
2022-11-10T14:38:27.582Z,1.53
2022-11-10T14:41:36.150Z,1.40
2022-11-10T14:48:35.334Z,1.52
2022-11-10T14:51:29.972Z,2.28
2022-11-10T14:54:26.057Z,1.90
2022-11-10T14:57:19.786Z,1.65
2022-11-10T15:00:17.803Z,1.60
2022-11-10T15:03:17.955Z,2.20
2022-11-10T15:06:11.199Z,1.85
2022-11-10T15:08:58.478Z,1.52
2022-11-10T15:12:29.117Z,1.70
2022-11-10T15:15:26.823Z,1.83
2022-11-10T15:18:35.361Z,1.63
2022-11-10T15:21:34.122Z,1.65
2022-11-10T15:27:25.941Z,1.60
2022-11-10T15:30:27.988Z,1.58
2022-11-10T15:33:16.798Z,1.85
2022-11-10T15:36:44.521Z,1.80
2022-11-10T15:39:31.586Z,1.65
2022-11-10T15:42:23.990Z,1.80
2022-11-10T15:45:14.365Z,1.63
2022-11-10T15:48:06.848Z,1.67
2022-11-10T15:50:55.492Z,1.60
2022-11-10T15:53:55.568Z,1.67
2022-11-10T15:56:46.644Z,1.50
2022-11-10T15:59:35.081Z,1.60
2022-11-10T16:02:27.481Z,1.85
2022-11-10T16:05:28.389Z,1.50
2022-11-10T16:08:22.675Z,1.67
2022-11-10T16:11:23.280Z,1.70
2022-11-10T16:14:13.841Z,1.60
2022-11-10T16:17:00.746Z,1.42
2022-11-10T16:19:48.708Z,1.70
2022-11-10T16:22:35.625Z,1.50
2022-11-10T16:25:27.770Z,1.60
2022-11-10T16:28:23.644Z,1.90
2022-11-10T16:31:28.091Z,1.63
2022-11-10T16:34:18.049Z,1.70
2022-11-10T16:37:07.546Z,1.67
2022-11-10T16:39:54.923Z,1.70
2022-11-10T16:42:54.542Z,1.70
2022-11-10T16:45:44.933Z,1.63
2022-11-10T16:48:35.958Z,1.65
2022-11-10T16:51:31.988Z,1.77
2022-11-10T16:54:18.754Z,2.17
2022-11-10T16:57:16.165Z,1.73
2022-11-10T17:00:03.431Z,1.52
2022-11-10T17:03:03.582Z,1.80
2022-11-10T17:05:50.474Z,1.30
2022-11-10T17:08:37.275Z,1.40
2022-11-10T17:11:24.115Z,1.60
2022-11-10T17:14:12.296Z,1.80
2022-11-10T17:16:59.075Z,1.60
2022-11-10T17:19:58.726Z,1.50
2022-11-10T17:22:45.864Z,1.45
2022-11-10T17:25:36.381Z,1.40
2022-11-10T17:28:23.249Z,2.08
2022-11-10T17:31:10.049Z,1.50
2022-11-10T17:33:56.878Z,1.60
2022-11-10T17:36:43.841Z,1.70
2022-11-10T17:39:31.931Z,1.73
2022-11-10T17:42:23.657Z,2.13
2022-11-10T17:45:27.260Z,1.60
2022-11-10T17:48:19.844Z,1.70
2022-11-10T17:51:11.109Z,2.30
2022-11-10T17:54:05.552Z,1.92
2022-11-10T17:56:57.837Z,1.80
2022-11-10T18:00:04.092Z,2.30
2022-11-10T18:03:02.509Z,2.25
2022-11-10T18:06:15.756Z,2.30
2022-11-10T18:09:10.414Z,2.30
2022-11-10T18:12:00.685Z,2.15
2022-11-10T18:14:51.967Z,2.17
2022-11-10T18:19:22.304Z,2.35
2022-11-10T18:34:55.445Z,4.53
2022-11-10T18:54:01.765Z,3.45
2022-11-10T19:02:13.168Z,3.03
2022-11-10T19:37:55.450Z,4.05
2022-11-10T21:46:38.025Z,3.70
2022-11-10T22:30:31.915Z,3.40
2022-11-10T22:34:26.053Z,3.60
